createdAt,value
2018-09-25T00:00:37.880Z,44.00
2018-09-25T00:03:11.808Z,43.50
2018-09-25T00:05:45.729Z,44.30
2018-09-25T00:08:19.314Z,44.30
2018-09-25T00:10:52.946Z,44.90
2018-09-25T00:13:26.636Z,44.60
2018-09-25T00:16:00.495Z,45.10
2018-09-25T00:18:34.252Z,45.40
2018-09-25T00:21:08.010Z,45.20
2018-09-25T00:23:41.942Z,45.40
2018-09-25T00:26:15.731Z,45.20
2018-09-25T00:28:49.417Z,45.40
2018-09-25T00:31:23.052Z,45.60
2018-09-25T00:33:56.942Z,45.30
2018-09-25T00:36:30.633Z,44.60
2018-09-25T00:39:04.473Z,44.50
2018-09-25T00:41:38.347Z,44.70
2018-09-25T00:44:12.141Z,44.30
2018-09-25T00:46:45.882Z,44.10
2018-09-25T00:49:19.929Z,44.30
2018-09-25T00:51:53.711Z,44.60
2018-09-25T00:54:27.469Z,45.20
2018-09-25T00:57:01.249Z,45.70
2018-09-25T00:59:35.152Z,45.10
2018-09-25T01:02:08.983Z,45.20
2018-09-25T01:04:42.639Z,44.60
2018-09-25T01:07:16.735Z,44.60
2018-09-25T01:09:50.534Z,44.70
2018-09-25T01:12:24.194Z,44.50
2018-09-25T01:14:57.941Z,44.80
2018-09-25T01:17:31.510Z,44.70
2018-09-25T01:20:05.133Z,45.30
2018-09-25T01:22:38.927Z,45.50
2018-09-25T01:25:12.694Z,45.40
2018-09-25T01:27:46.291Z,46.10
2018-09-25T01:30:20.045Z,45.60
2018-09-25T01:32:53.682Z,46.10
2018-09-25T01:35:27.536Z,45.70
2018-09-25T01:38:01.288Z,45.60
2018-09-25T01:40:35.174Z,45.60
2018-09-25T01:43:09.078Z,45.80
2018-09-25T01:45:42.783Z,45.90
2018-09-25T01:48:16.481Z,45.50
2018-09-25T01:50:50.221Z,45.70
2018-09-25T01:53:23.580Z,45.50
2018-09-25T01:55:57.354Z,45.60
2018-09-25T01:58:31.014Z,45.50
2018-09-25T02:01:04.796Z,45.20
2018-09-25T02:03:38.592Z,45.00
2018-09-25T02:06:12.277Z,44.90
2018-09-25T02:08:46.337Z,45.00
2018-09-25T02:11:19.984Z,45.60
2018-09-25T02:13:53.594Z,45.70
2018-09-25T02:16:26.987Z,45.60
2018-09-25T02:19:00.705Z,45.60
2018-09-25T02:21:34.494Z,45.60
2018-09-25T02:24:08.106Z,45.30
2018-09-25T02:26:41.789Z,45.90
2018-09-25T02:29:15.459Z,45.50
2018-09-25T02:31:49.166Z,45.90
2018-09-25T02:34:22.929Z,45.70
2018-09-25T02:36:56.455Z,45.60
2018-09-25T02:39:30.114Z,46.40
2018-09-25T02:42:03.924Z,46.70
2018-09-25T02:44:37.608Z,46.70
2018-09-25T02:47:11.231Z,47.60
2018-09-25T02:49:44.913Z,46.50
2018-09-25T02:52:19.465Z,47.00
2018-09-25T02:54:52.957Z,46.40
2018-09-25T02:57:26.538Z,46.80
2018-09-25T03:00:00.080Z,45.90
2018-09-25T03:02:33.486Z,45.80
2018-09-25T03:05:07.149Z,45.90
2018-09-25T03:07:40.986Z,47.70
2018-09-25T03:10:14.535Z,48.20
2018-09-25T03:12:48.242Z,48.80
2018-09-25T03:15:22.065Z,49.20
2018-09-25T03:17:55.917Z,49.50
2018-09-25T03:20:29.592Z,49.40
2018-09-25T03:23:03.545Z,48.80
2018-09-25T03:25:37.383Z,48.80
2018-09-25T03:28:10.865Z,48.70
2018-09-25T03:30:44.579Z,49.40
2018-09-25T03:33:18.212Z,49.90
2018-09-25T03:35:52.078Z,49.30
2018-09-25T03:38:25.497Z,49.50
2018-09-25T03:41:00.121Z,49.30
2018-09-25T03:43:33.817Z,49.30
2018-09-25T03:46:07.199Z,49.00
2018-09-25T03:48:40.971Z,48.50
2018-09-25T03:51:14.659Z,47.60
2018-09-25T03:53:48.202Z,47.30
2018-09-25T03:56:22.080Z,47.90
2018-09-25T03:58:55.712Z,48.30
2018-09-25T04:01:30.438Z,47.80
2018-09-25T04:04:04.223Z,47.00
2018-09-25T04:06:37.914Z,46.70
2018-09-25T04:09:12.202Z,46.60
2018-09-25T04:11:45.972Z,47.70
2018-09-25T04:14:19.610Z,47.90
2018-09-25T04:16:53.314Z,47.80
2018-09-25T04:19:27.365Z,48.20
2018-09-25T04:22:01.035Z,48.70
2018-09-25T04:24:34.781Z,48.40
2018-09-25T04:27:08.553Z,48.00
2018-09-25T04:29:42.150Z,47.80
2018-09-25T04:32:15.905Z,48.10
2018-09-25T04:34:49.609Z,47.60
2018-09-25T04:37:23.287Z,47.30
2018-09-25T04:39:56.701Z,47.00
2018-09-25T04:42:30.437Z,46.90
2018-09-25T04:45:03.841Z,46.40
2018-09-25T04:47:37.538Z,47.10
2018-09-25T04:50:11.109Z,47.80
2018-09-25T04:52:44.894Z,48.20
2018-09-25T04:55:18.624Z,48.60
2018-09-25T04:57:52.229Z,48.50
2018-09-25T05:00:25.993Z,47.30
2018-09-25T05:02:59.514Z,46.70
2018-09-25T05:05:33.046Z,46.70
2018-09-25T05:08:07.232Z,46.10
2018-09-25T05:10:40.994Z,45.30
2018-09-25T05:13:14.666Z,45.40
2018-09-25T05:15:48.386Z,45.60
2018-09-25T05:18:22.591Z,45.50
2018-09-25T05:20:56.263Z,45.40
2018-09-25T05:23:30.042Z,45.40
2018-09-25T05:26:03.669Z,45.50
2018-09-25T05:28:37.497Z,45.40
2018-09-25T05:31:12.426Z,46.10
2018-09-25T05:34:02.548Z,46.90
2018-09-25T05:36:37.366Z,47.80
2018-09-25T05:39:14.689Z,48.80
2018-09-25T05:41:48.902Z,49.60
2018-09-25T05:44:22.634Z,49.10
2018-09-25T05:46:56.289Z,48.20
2018-09-25T05:49:30.015Z,48.90
2018-09-25T05:52:03.551Z,48.00
2018-09-25T05:54:37.076Z,47.00
2018-09-25T05:57:10.597Z,46.20
2018-09-25T05:59:44.056Z,45.60
2018-09-25T06:02:17.770Z,45.60
2018-09-25T06:04:52.411Z,44.50
2018-09-25T06:07:26.044Z,44.20
2018-09-25T06:09:59.695Z,44.60
2018-09-25T06:12:33.618Z,44.80
2018-09-25T06:15:07.287Z,44.90
2018-09-25T06:17:41.132Z,45.00
2018-09-25T06:20:14.838Z,45.30
2018-09-25T06:22:48.676Z,45.40
2018-09-25T06:25:23.355Z,44.80
2018-09-25T06:27:57.278Z,44.30
2018-09-25T06:30:30.838Z,43.80
2018-09-25T06:33:04.481Z,43.70
2018-09-25T06:35:37.953Z,43.90
2018-09-25T06:38:11.583Z,44.30
2018-09-25T06:40:45.265Z,44.20
2018-09-25T06:43:19.045Z,45.10
2018-09-25T06:45:52.689Z,43.70
2018-09-25T06:48:26.377Z,40.60
2018-09-25T06:51:00.050Z,39.20
2018-09-25T06:53:33.762Z,38.10
2018-09-25T06:56:07.408Z,37.40
2018-09-25T06:58:40.994Z,36.40
2018-09-25T07:01:15.025Z,34.20
2018-09-25T07:03:48.628Z,34.00
2018-09-25T07:06:22.795Z,34.20
2018-09-25T07:08:56.396Z,34.20
2018-09-25T07:11:30.194Z,35.30
2018-09-25T07:14:03.759Z,35.60
2018-09-25T07:16:37.446Z,35.50
2018-09-25T07:19:11.144Z,36.20
2018-09-25T07:21:44.813Z,36.30
2018-09-25T07:24:18.506Z,36.00
2018-09-25T07:26:52.177Z,33.50
2018-09-25T07:29:25.777Z,32.90
2018-09-25T07:31:59.705Z,32.90
2018-09-25T07:34:33.741Z,33.20
2018-09-25T07:37:07.908Z,33.10
2018-09-25T07:39:41.635Z,35.50
2018-09-25T07:42:15.305Z,33.30
2018-09-25T07:44:48.973Z,32.20
2018-09-25T07:47:22.649Z,29.20
2018-09-25T07:49:56.310Z,30.30
2018-09-25T07:52:29.903Z,28.20
2018-09-25T07:55:03.622Z,26.40
2018-09-25T07:57:37.294Z,25.10
2018-09-25T08:00:11.119Z,23.30
2018-09-25T08:02:44.693Z,23.60
2018-09-25T08:05:18.433Z,23.20
2018-09-25T08:07:52.698Z,22.40
2018-09-25T08:10:26.335Z,21.60
2018-09-25T08:12:59.844Z,20.50
2018-09-25T08:15:34.075Z,20.30
2018-09-25T08:18:07.670Z,20.30
2018-09-25T08:20:41.544Z,20.20
2018-09-25T08:23:15.258Z,19.10
2018-09-25T08:25:49.062Z,17.70
2018-09-25T08:28:22.802Z,18.00
2018-09-25T08:31:04.384Z,18.20
2018-09-25T08:33:38.081Z,17.10
2018-09-25T08:36:11.801Z,17.80
2018-09-25T08:38:45.532Z,17.30
2018-09-25T08:41:19.137Z,16.90
2018-09-25T08:43:52.948Z,17.00
2018-09-25T08:46:26.753Z,17.20
2018-09-25T08:49:00.414Z,16.50
2018-09-25T08:51:34.138Z,16.30
2018-09-25T08:54:07.896Z,16.70
2018-09-25T08:56:41.472Z,15.80
2018-09-25T08:59:14.846Z,15.80
2018-09-25T09:01:48.461Z,15.50
2018-09-25T09:04:23.007Z,14.20
2018-09-25T09:06:56.788Z,14.10
2018-09-25T09:09:30.530Z,13.40
2018-09-25T09:12:04.174Z,14.60
2018-09-25T09:14:37.937Z,14.20
2018-09-25T09:17:11.666Z,14.10
2018-09-25T09:19:45.252Z,13.70
2018-09-25T09:22:18.880Z,13.00
2018-09-25T09:24:52.611Z,13.90
2018-09-25T09:27:26.635Z,12.70
2018-09-25T09:30:01.101Z,13.70
2018-09-25T09:32:34.799Z,12.90
2018-09-25T09:35:08.521Z,13.20
2018-09-25T09:37:42.457Z,12.90
2018-09-25T09:40:16.254Z,12.80
2018-09-25T09:42:50.029Z,12.40
2018-09-25T09:45:23.746Z,13.20
2018-09-25T09:47:57.402Z,13.20
2018-09-25T09:50:30.976Z,13.90
2018-09-25T09:53:04.543Z,14.40
2018-09-25T09:55:38.678Z,14.80
2018-09-25T09:58:12.189Z,14.30
2018-09-25T10:00:45.726Z,15.50
2018-09-25T10:03:19.378Z,16.50
2018-09-25T10:05:53.041Z,16.60
2018-09-25T10:08:26.768Z,15.30
2018-09-25T10:11:00.347Z,14.50
2018-09-25T10:13:34.057Z,13.90
2018-09-25T10:16:07.909Z,13.20
2018-09-25T10:18:41.385Z,12.80
2018-09-25T10:21:16.159Z,12.40
2018-09-25T10:23:49.845Z,12.00
2018-09-25T10:26:24.030Z,12.30
2018-09-25T10:28:57.630Z,11.50
2018-09-25T10:31:31.057Z,10.20
2018-09-25T10:34:04.813Z,11.00
2018-09-25T10:36:38.453Z,11.00
2018-09-25T10:39:13.948Z,10.90
2018-09-25T10:41:47.623Z,11.00
2018-09-25T10:44:21.821Z,11.00
2018-09-25T10:46:55.466Z,10.50
2018-09-25T10:49:29.641Z,11.00
2018-09-25T10:52:03.420Z,11.00
2018-09-25T10:54:37.331Z,11.40
2018-09-25T10:57:11.085Z,11.50
2018-09-25T10:59:45.591Z,13.30
2018-09-25T11:02:19.613Z,13.00
2018-09-25T11:04:53.145Z,12.80
2018-09-25T11:07:26.913Z,13.20
2018-09-25T11:10:01.207Z,12.20
2018-09-25T11:12:35.087Z,11.40
2018-09-25T11:15:08.713Z,11.50
2018-09-25T11:17:42.338Z,11.00
2018-09-25T11:20:15.980Z,11.30
2018-09-25T11:22:49.612Z,11.60
2018-09-25T11:25:23.277Z,11.00
2018-09-25T11:27:57.217Z,10.90
2018-09-25T11:30:30.978Z,11.00
2018-09-25T11:33:04.654Z,10.90
2018-09-25T11:35:38.682Z,10.50
2018-09-25T11:38:12.236Z,11.20
2018-09-25T11:40:46.110Z,11.70
2018-09-25T11:43:19.811Z,11.50
2018-09-25T11:45:53.484Z,10.80
2018-09-25T11:48:27.220Z,11.10
2018-09-25T11:51:00.944Z,10.50
2018-09-25T11:53:34.750Z,10.00
2018-09-25T11:56:08.537Z,10.00
2018-09-25T11:58:42.233Z,10.40
2018-09-25T12:01:15.962Z,10.60
2018-09-25T12:03:49.829Z,11.10
2018-09-25T12:06:23.754Z,11.60
2018-09-25T12:08:57.871Z,11.00
2018-09-25T12:11:31.434Z,10.90
2018-09-25T12:14:05.127Z,10.80
2018-09-25T12:16:38.821Z,10.50
2018-09-25T12:19:12.375Z,10.00
2018-09-25T12:21:46.105Z,9.90
2018-09-25T12:24:19.898Z,10.00
2018-09-25T12:26:53.485Z,10.70
2018-09-25T12:29:27.106Z,11.80
2018-09-25T12:32:00.981Z,12.10
2018-09-25T12:34:34.517Z,12.40
2018-09-25T12:37:08.262Z,12.20
2018-09-25T12:39:41.872Z,11.20
2018-09-25T12:42:15.598Z,11.40
2018-09-25T12:44:49.462Z,11.80
2018-09-25T12:47:23.241Z,10.90
2018-09-25T12:49:56.996Z,10.70
2018-09-25T12:52:30.552Z,10.50
2018-09-25T12:55:04.271Z,10.50
2018-09-25T12:57:37.677Z,10.20
2018-09-25T13:00:11.894Z,10.50
2018-09-25T13:02:45.599Z,11.00
2018-09-25T13:05:19.294Z,11.80
2018-09-25T13:07:53.031Z,12.10
2018-09-25T13:10:26.788Z,12.90
2018-09-25T13:13:00.418Z,14.20
2018-09-25T13:15:34.134Z,14.00
2018-09-25T13:18:09.384Z,15.50
2018-09-25T13:20:43.037Z,17.00
2018-09-25T13:23:16.806Z,17.70
2018-09-25T13:25:50.247Z,17.20
2018-09-25T13:28:24.002Z,17.70
2018-09-25T13:30:57.673Z,17.00
2018-09-25T13:33:31.340Z,17.40
2018-09-25T13:36:05.083Z,17.20
2018-09-25T13:38:38.616Z,17.20
2018-09-25T13:41:12.289Z,17.00
2018-09-25T13:43:46.019Z,17.80
2018-09-25T13:46:21.112Z,18.60
2018-09-25T13:48:54.909Z,19.00
2018-09-25T13:51:28.642Z,18.60
2018-09-25T13:54:02.679Z,19.20
2018-09-25T13:56:36.187Z,19.40
2018-09-25T13:59:10.093Z,19.00
2018-09-25T14:01:45.124Z,19.60
2018-09-25T14:04:18.681Z,20.30
2018-09-25T14:06:53.166Z,19.70
2018-09-25T14:09:26.866Z,20.90
2018-09-25T14:12:00.506Z,19.90
2018-09-25T14:14:34.233Z,20.10
2018-09-25T14:17:08.258Z,19.40
2018-09-25T14:19:41.857Z,18.30
2018-09-25T14:22:15.549Z,18.80
2018-09-25T14:24:49.570Z,18.00
2018-09-25T14:27:23.074Z,17.40
2018-09-25T14:29:56.469Z,18.50
2018-09-25T14:32:31.169Z,17.00
2018-09-25T14:35:04.934Z,17.70
2018-09-25T14:37:38.531Z,18.00
2018-09-25T14:40:12.121Z,17.90
2018-09-25T14:42:45.759Z,18.30
2018-09-25T14:45:19.475Z,18.90
2018-09-25T14:47:53.171Z,19.30
2018-09-25T14:50:26.847Z,19.00
2018-09-25T14:53:00.530Z,19.50
2018-09-25T14:55:34.177Z,19.30
2018-09-25T14:58:08.101Z,20.10
2018-09-25T15:00:41.843Z,19.60
2018-09-25T15:03:16.559Z,20.60
2018-09-25T15:05:50.169Z,21.00
2018-09-25T15:08:24.077Z,21.40
2018-09-25T15:10:57.729Z,20.00
2018-09-25T15:13:31.280Z,19.50
2018-09-25T15:16:04.892Z,21.10
2018-09-25T15:18:38.577Z,19.90
2018-09-25T15:21:12.432Z,21.90
2018-09-25T15:23:45.875Z,20.40
2018-09-25T15:26:19.534Z,21.00
2018-09-25T15:28:53.394Z,20.00
2018-09-25T15:31:27.050Z,19.80
2018-09-25T15:34:01.116Z,18.40
2018-09-25T15:36:34.694Z,17.40
2018-09-25T15:39:08.221Z,15.90
2018-09-25T15:41:42.150Z,16.60
2018-09-25T15:44:15.841Z,16.40
2018-09-25T15:46:49.358Z,16.80
2018-09-25T15:49:24.001Z,17.90
2018-09-25T15:51:57.401Z,18.10
2018-09-25T15:54:31.153Z,18.80
2018-09-25T15:57:05.017Z,17.90
2018-09-25T15:59:38.703Z,18.10
2018-09-25T16:02:12.654Z,17.40
2018-09-25T16:04:47.795Z,18.10
2018-09-25T16:07:21.749Z,19.00
2018-09-25T16:09:55.429Z,17.60
2018-09-25T16:12:29.314Z,18.90
2018-09-25T16:15:03.027Z,19.40
2018-09-25T16:17:36.907Z,17.20
2018-09-25T16:20:10.653Z,18.70
2018-09-25T16:22:45.385Z,18.80
2018-09-25T16:25:19.055Z,20.10
2018-09-25T16:27:52.835Z,18.60
2018-09-25T16:30:26.556Z,19.90
2018-09-25T16:33:00.330Z,21.00
2018-09-25T16:35:34.069Z,20.70
2018-09-25T16:38:09.338Z,20.70
2018-09-25T16:40:43.148Z,20.20
2018-09-25T16:43:16.753Z,22.40
2018-09-25T16:45:50.371Z,23.30
2018-09-25T16:48:23.840Z,23.90
2018-09-25T16:50:57.451Z,22.60
2018-09-25T16:53:31.111Z,23.60
2018-09-25T16:56:04.893Z,24.00
2018-09-25T16:58:38.594Z,24.40
2018-09-25T17:01:12.557Z,23.70
2018-09-25T17:03:46.268Z,23.00
2018-09-25T17:06:19.910Z,24.60
2018-09-25T17:08:53.514Z,24.40
2018-09-25T17:11:27.056Z,25.00
2018-09-25T17:14:00.823Z,25.50
2018-09-25T17:16:34.392Z,25.50
2018-09-25T17:19:08.096Z,25.50
2018-09-25T17:21:41.739Z,26.40
2018-09-25T17:24:15.667Z,25.40
2018-09-25T17:26:49.418Z,26.00
2018-09-25T17:29:23.545Z,26.20
2018-09-25T17:31:57.206Z,26.20
2018-09-25T17:34:30.896Z,25.50
2018-09-25T17:37:04.515Z,26.60
2018-09-25T17:39:38.138Z,26.70
2018-09-25T17:42:11.886Z,26.50
2018-09-25T17:44:45.626Z,26.60
2018-09-25T17:47:19.353Z,26.80
2018-09-25T17:49:53.108Z,26.00
2018-09-25T17:52:26.918Z,26.60
2018-09-25T17:55:00.655Z,27.20
2018-09-25T17:57:34.346Z,27.60
2018-09-25T18:00:08.017Z,25.80
2018-09-25T18:02:41.653Z,26.60
2018-09-25T18:05:15.583Z,26.70
2018-09-25T18:07:49.154Z,27.00
2018-09-25T18:10:22.865Z,27.30
2018-09-25T18:12:56.587Z,27.80
2018-09-25T18:15:30.753Z,27.20
2018-09-25T18:18:04.392Z,27.20
2018-09-25T18:20:38.334Z,27.90
2018-09-25T18:23:12.033Z,27.60
2018-09-25T18:25:45.741Z,27.80
2018-09-25T18:28:19.519Z,27.60
2018-09-25T18:30:53.477Z,27.10
2018-09-25T18:33:27.169Z,28.30
2018-09-25T18:36:00.904Z,27.80
2018-09-25T18:38:34.661Z,28.20
2018-09-25T18:41:08.625Z,27.70
2018-09-25T18:43:42.211Z,28.00
2018-09-25T18:46:15.853Z,28.10
2018-09-25T18:48:49.370Z,28.10
2018-09-25T18:51:23.893Z,28.50
2018-09-25T18:53:57.526Z,29.30
2018-09-25T18:56:31.078Z,30.10
2018-09-25T18:59:04.762Z,30.50
2018-09-25T19:01:38.446Z,31.80
2018-09-25T19:04:12.141Z,31.30
2018-09-25T19:06:45.718Z,31.10
2018-09-25T19:09:19.425Z,32.20
2018-09-25T19:11:53.149Z,32.50
2018-09-25T19:14:26.529Z,31.50
2018-09-25T19:17:00.374Z,30.50
2018-09-25T19:19:34.006Z,30.80
2018-09-25T19:22:07.803Z,32.20
2018-09-25T19:24:41.449Z,31.50
2018-09-25T19:27:15.182Z,32.40
2018-09-25T19:29:48.826Z,32.10
2018-09-25T19:32:23.641Z,32.00
2018-09-25T19:34:57.373Z,32.30
2018-09-25T19:37:31.104Z,32.90
2018-09-25T19:40:04.777Z,33.00
2018-09-25T19:42:39.254Z,32.80
2018-09-25T19:45:12.916Z,33.60
2018-09-25T19:47:46.651Z,32.70
2018-09-25T19:50:20.618Z,33.10
2018-09-25T19:52:54.235Z,33.00
2018-09-25T19:55:28.010Z,33.50
2018-09-25T19:58:01.861Z,34.10
2018-09-25T20:00:35.417Z,34.70
2018-09-25T20:03:09.101Z,33.60
2018-09-25T20:05:42.828Z,33.20
2018-09-25T20:08:16.477Z,32.90
2018-09-25T20:10:49.911Z,33.70
2018-09-25T20:13:23.760Z,34.10
2018-09-25T20:15:57.542Z,34.10
2018-09-25T20:18:31.641Z,34.40
2018-09-25T20:21:05.425Z,34.60
2018-09-25T20:23:39.121Z,34.30
2018-09-25T20:26:12.937Z,34.40
2018-09-25T20:28:46.619Z,35.30
2018-09-25T20:31:20.320Z,35.00
2018-09-25T20:33:54.044Z,34.50
2018-09-25T20:36:27.494Z,34.20
2018-09-25T20:39:01.215Z,34.60
2018-09-25T20:41:34.941Z,35.80
2018-09-25T20:44:08.474Z,35.40
2018-09-25T20:46:42.253Z,36.30
2018-09-25T20:49:16.246Z,36.40
2018-09-25T20:51:49.960Z,37.50
2018-09-25T20:54:23.711Z,37.80
2018-09-25T20:56:57.113Z,38.00
2018-09-25T20:59:31.863Z,38.50
2018-09-25T21:02:05.515Z,37.80
2018-09-25T21:04:38.985Z,37.10
2018-09-25T21:07:12.624Z,37.30
2018-09-25T21:09:46.088Z,37.20
2018-09-25T21:12:19.765Z,37.00
2018-09-25T21:14:53.443Z,35.70
2018-09-25T21:17:27.126Z,35.80
2018-09-25T21:20:00.774Z,34.60
2018-09-25T21:22:34.233Z,34.70
2018-09-25T21:25:08.884Z,35.00
2018-09-25T21:27:42.306Z,35.10
2018-09-25T21:30:16.117Z,35.70
2018-09-25T21:32:49.949Z,36.50
2018-09-25T21:35:23.510Z,37.30
2018-09-25T21:37:57.121Z,37.70
2018-09-25T21:40:30.756Z,37.80
2018-09-25T21:43:04.469Z,37.40
2018-09-25T21:45:38.163Z,36.50
2018-09-25T21:48:11.640Z,36.80
2018-09-25T21:50:46.466Z,36.10
2018-09-25T21:53:20.132Z,36.80
2018-09-25T21:55:53.909Z,36.20
2018-09-25T21:58:27.677Z,37.30
2018-09-25T22:01:01.357Z,36.90
2018-09-25T22:03:35.038Z,36.70
2018-09-25T22:06:08.803Z,37.20
2018-09-25T22:08:42.533Z,37.90
2018-09-25T22:11:16.377Z,38.20
2018-09-25T22:13:50.019Z,37.50
2018-09-25T22:16:23.572Z,37.40
2018-09-25T22:18:57.362Z,36.70
2018-09-25T22:21:30.959Z,36.10
2018-09-25T22:24:04.641Z,36.10
2018-09-25T22:26:38.177Z,36.10
2018-09-25T22:29:11.795Z,37.10
2018-09-25T22:31:46.197Z,37.30
2018-09-25T22:34:20.138Z,37.10
2018-09-25T22:36:53.870Z,37.40
2018-09-25T22:39:27.473Z,37.80
2018-09-25T22:42:01.240Z,37.00
2018-09-25T22:44:34.640Z,37.20
2018-09-25T22:47:08.234Z,38.00
2018-09-25T22:49:41.861Z,37.30
2018-09-25T22:52:15.889Z,36.90
2018-09-25T22:54:49.605Z,36.80
2018-09-25T22:57:23.413Z,36.90
2018-09-25T22:59:57.126Z,37.50
2018-09-25T23:02:30.890Z,37.30
2018-09-25T23:05:04.407Z,38.30
2018-09-25T23:07:39.071Z,38.60
2018-09-25T23:10:12.802Z,37.90
2018-09-25T23:12:46.650Z,37.70
2018-09-25T23:15:20.517Z,37.40
2018-09-25T23:17:54.093Z,37.50
2018-09-25T23:20:27.617Z,37.60
2018-09-25T23:23:01.101Z,38.60
2018-09-25T23:25:34.835Z,38.70
2018-09-25T23:28:08.348Z,38.40
2018-09-25T23:30:42.206Z,38.40
2018-09-25T23:33:15.786Z,39.10
2018-09-25T23:35:49.691Z,38.80
2018-09-25T23:38:23.385Z,38.50
2018-09-25T23:41:54.885Z,38.70
2018-09-25T23:44:32.408Z,38.50
2018-09-25T23:47:11.764Z,39.60
2018-09-25T23:49:46.644Z,40.00
2018-09-25T23:52:28.220Z,40.70
2018-09-25T23:55:00.860Z,41.20
2018-09-25T23:57:33.687Z,41.60
